Check out our new BloomSky Weather System.

Active alerts

Houston, TX
  Details for Houston, TX Dense Fog Advisory


Thunder radar  blitzortung!


Rain radar more information rain snow radar


Visit our other weather sites:

Template documentation
and downloads

And another site



Weather Underground History page Text

Daily Summary for February 26, 2017 Units:  English    Metric   Both
« Previous Day
Next Day »
Daily Weekly Monthly Yearly Custom
  High: Low: Average:
Temperature: 74.3 °F 44.1 °F 61.8 °F
Dew Point: 66.0 °F 35.4 °F 53.2 °F
Humidity: 94 % 56 % 74 %
Wind Speed: 15.0 mph 0.0 mph 3.9 mph
Wind Gust: 21.0 mph - -
Wind:- - SE
Pressure: 30.07 in 29.91 in -
Precipitation: 0.00 in    
Historical Graphs
 
 
Tabular Data for February 26, 2017
Time Temperature Dew Point Pressure Wind Wind Speed Wind Gust Humidity Rainfall Rate (Hourly)
00:03 50.7 °F 35.6 °F 30.07 in Calm   1.0 mph 56 % 0.00 in
00:08 50.5 °F 35.4 °F 30.06 in Calm   1.0 mph 56 % 0.00 in
00:13 50.4 °F 35.8 °F 30.07 in Calm   1.0 mph 57 % 0.00 in
00:18 50.2 °F 36.0 °F 30.07 in Calm   1.0 mph 58 % 0.00 in
00:23 50.2 °F 36.0 °F 30.06 in Calm   1.0 mph 58 % 0.00 in
00:28 50.2 °F 36.0 °F 30.06 in Calm   1.0 mph 58 % 0.00 in
00:33 50.2 °F 36.0 °F 30.06 in Calm   1.0 mph 58 % 0.00 in
00:38 50.2 °F 36.3 °F 30.06 in Calm   1.0 mph 59 % 0.00 in
00:43 50.2 °F 36.3 °F 30.05 in Calm   1.0 mph 59 % 0.00 in
00:48 50.2 °F 36.3 °F 30.06 in Calm   1.0 mph 59 % 0.00 in
00:53 50.2 °F 36.3 °F 30.06 in East 1.0 mph 1.0 mph 59 % 0.00 in
00:58 50.2 °F 36.3 °F 30.06 in Calm   2.0 mph 59 % 0.00 in
01:04 50.2 °F 36.3 °F 30.06 in Calm   2.0 mph 59 % 0.00 in
01:09 50.2 °F 36.3 °F 30.06 in ESE 1.0 mph 2.0 mph 59 % 0.00 in
01:14 50.2 °F 36.0 °F 30.05 in Calm   4.0 mph 58 % 0.00 in
01:19 49.8 °F 35.6 °F 30.05 in Calm   4.0 mph 58 % 0.00 in
01:24 49.6 °F 36.0 °F 30.06 in Calm   4.0 mph 59 % 0.00 in
01:29 49.3 °F 35.6 °F 30.05 in Calm   1.0 mph 59 % 0.00 in
01:34 48.9 °F 35.6 °F 30.05 in Calm   1.0 mph 60 % 0.00 in
01:39 48.9 °F 35.6 °F 30.05 in Calm   1.0 mph 60 % 0.00 in
01:44 48.7 °F 35.4 °F 30.04 in Calm   1.0 mph 60 % 0.00 in
01:49 48.4 °F 35.6 °F 30.05 in Calm   1.0 mph 61 % 0.00 in
01:54 48.0 °F 35.6 °F 30.04 in Calm   1.0 mph 62 % 0.00 in
01:59 47.7 °F 35.6 °F 30.04 in Calm     63 % 0.00 in
02:04 47.8 °F 35.8 °F 30.04 in Calm     63 % 0.00 in
02:09 47.7 °F 36.1 °F 30.04 in Calm     64 % 0.00 in
02:14 47.5 °F 36.3 °F 30.04 in Calm     65 % 0.00 in
02:19 47.3 °F 36.1 °F 30.04 in Calm     65 % 0.00 in
02:24 46.9 °F 35.8 °F 30.03 in Calm     65 % 0.00 in
02:29 46.8 °F 36.0 °F 30.03 in Calm     66 % 0.00 in
02:34 46.9 °F 36.1 °F 30.03 in Calm   1.0 mph 66 % 0.00 in
02:39 46.8 °F 36.0 °F 30.03 in Calm   1.0 mph 66 % 0.00 in
02:44 46.6 °F 36.1 °F 30.03 in Calm   1.0 mph 67 % 0.00 in
02:49 46.2 °F 36.3 °F 30.03 in Calm     68 % 0.00 in
02:54 45.9 °F 36.0 °F 30.03 in Calm     68 % 0.00 in
02:59 45.7 °F 36.5 °F 30.03 in Calm     70 % 0.00 in
03:04 45.5 °F 36.7 °F 30.03 in Calm     71 % 0.00 in
03:09 45.3 °F 36.5 °F 30.02 in Calm     71 % 0.00 in
03:14 45.1 °F 36.3 °F 30.02 in Calm     71 % 0.00 in
03:19 45.0 °F 36.5 °F 30.02 in Calm     72 % 0.00 in
03:24 44.6 °F 36.1 °F 30.02 in Calm     72 % 0.00 in
03:29 44.2 °F 36.1 °F 30.02 in Calm     73 % 0.00 in
03:34 44.2 °F 36.5 °F 30.02 in Calm     74 % 0.00 in
03:39 44.1 °F 36.3 °F 30.02 in Calm     74 % 0.00 in
03:44 44.2 °F 36.9 °F 30.02 in Calm     75 % 0.00 in
03:49 44.4 °F 37.0 °F 30.01 in Calm     75 % 0.00 in
03:55 44.4 °F 37.0 °F 30.01 in Calm     75 % 0.00 in
03:56 44.4 °F 37.0 °F 30.01 in Calm     75 % 0.00 in
04:01 44.4 °F 37.0 °F 30.01 in Calm     75 % 0.00 in
04:06 44.8 °F 37.8 °F 30.01 in East 1.0 mph 1.0 mph 76 % 0.00 in
04:11 45.1 °F 37.8 °F 30.01 in Calm   1.0 mph 75 % 0.00 in
04:16 45.5 °F 38.1 °F 30.00 in Calm   3.0 mph 75 % 0.00 in
04:21 46.0 °F 38.3 °F 30.00 in Calm   3.0 mph 74 % 0.00 in
04:26 46.6 °F 38.5 °F 30.00 in ENE 1.0 mph 3.0 mph 73 % 0.00 in
04:31 46.9 °F 38.3 °F 30.00 in ENE 1.0 mph 2.0 mph 72 % 0.00 in
04:36 47.3 °F 38.7 °F 30.00 in Calm   2.0 mph 72 % 0.00 in
04:41 47.7 °F 38.7 °F 30.00 in East 1.0 mph 2.0 mph 71 % 0.00 in
04:46 47.7 °F 38.7 °F 30.00 in ENE 2.0 mph 2.0 mph 71 % 0.00 in
04:51 47.8 °F 38.8 °F 29.99 in Calm   3.0 mph 71 % 0.00 in
04:56 48.0 °F 39.0 °F 30.00 in ENE 1.0 mph 3.0 mph 71 % 0.00 in
05:01 48.0 °F 39.0 °F 29.99 in Calm   3.0 mph 71 % 0.00 in
05:06 48.0 °F 39.4 °F 29.99 in Calm   3.0 mph 72 % 0.00 in
05:11 48.0 °F 39.4 °F 29.99 in Calm   2.0 mph 72 % 0.00 in
05:16 48.4 °F 40.1 °F 30.00 in Calm   4.0 mph 73 % 0.00 in
05:21 48.6 °F 39.9 °F 30.00 in Calm   4.0 mph 72 % 0.00 in
05:26 48.6 °F 39.9 °F 30.00 in Calm   4.0 mph 72 % 0.00 in
05:31 48.6 °F 40.3 °F 30.00 in Calm   3.0 mph 73 % 0.00 in
05:36 48.6 °F 40.3 °F 30.01 in Calm   2.0 mph 73 % 0.00 in
05:41 48.4 °F 40.1 °F 30.01 in Calm   1.0 mph 73 % 0.00 in
05:42 48.4 °F 40.1 °F 30.01 in Calm   1.0 mph 73 % 0.00 in
05:47 48.0 °F 40.1 °F 30.01 in Calm   1.0 mph 74 % 0.00 in
05:52 47.8 °F 39.9 °F 30.01 in Calm   1.0 mph 74 % 0.00 in
05:57 47.5 °F 39.9 °F 30.01 in Calm   1.0 mph 75 % 0.00 in
06:02 47.5 °F 40.3 °F 30.01 in Calm   1.0 mph 76 % 0.00 in
06:07 47.3 °F 40.1 °F 30.01 in Calm   1.0 mph 76 % 0.00 in
06:12 46.9 °F 40.5 °F 30.02 in Calm     78 % 0.00 in
06:17 46.9 °F 40.5 °F 30.02 in Calm   1.0 mph 78 % 0.00 in
06:22 46.9 °F 40.8 °F 30.01 in Calm   1.0 mph 79 % 0.00 in
06:27 46.8 °F 40.6 °F 30.01 in Calm   1.0 mph 79 % 0.00 in
06:32 46.8 °F 41.0 °F 30.01 in Calm   1.0 mph 80 % 0.00 in
06:37 46.8 °F 41.2 °F 30.01 in Calm   1.0 mph 81 % 0.00 in
06:42 46.9 °F 41.4 °F 30.01 in Calm   1.0 mph 81 % 0.00 in
06:47 46.9 °F 41.7 °F 30.01 in Calm   1.0 mph 82 % 0.00 in
06:52 46.9 °F 41.7 °F 30.01 in Calm   1.0 mph 82 % 0.00 in
06:57 46.9 °F 42.1 °F 30.01 in Calm   1.0 mph 83 % 0.00 in
07:02 47.5 °F 42.8 °F 30.01 in SSE 1.0 mph 3.0 mph 84 % 0.00 in
07:07 47.8 °F 43.2 °F 30.01 in SE 2.0 mph 4.0 mph 84 % 0.00 in
07:12 48.4 °F 43.5 °F 30.01 in ESE 3.0 mph 4.0 mph 83 % 0.00 in
07:17 48.7 °F 43.9 °F 30.01 in SE 1.0 mph 4.0 mph 83 % 0.00 in
07:22 49.1 °F 44.2 °F 30.01 in ESE 1.0 mph 4.0 mph 83 % 0.00 in
07:27 49.5 °F 44.6 °F 30.01 in SE 1.0 mph 4.0 mph 83 % 0.00 in
07:32 49.8 °F 44.6 °F 30.01 in East 2.0 mph 4.0 mph 82 % 0.00 in
07:37 50.2 °F 45.0 °F 30.01 in NE 2.0 mph 5.0 mph 82 % 0.00 in
07:42 50.5 °F 45.3 °F 30.02 in East 2.0 mph 5.0 mph 82 % 0.00 in
07:47 51.4 °F 46.2 °F 30.02 in East 1.0 mph 5.0 mph 82 % 0.00 in
07:52 52.2 °F 46.6 °F 30.02 in Calm   4.0 mph 81 % 0.00 in
07:57 52.9 °F 46.6 °F 30.02 in ESE 2.0 mph 3.0 mph 79 % 0.00 in
08:02 53.4 °F 47.1 °F 30.02 in Calm   4.0 mph 79 % 0.00 in
08:07 54.1 °F 47.5 °F 30.02 in East 3.0 mph 4.0 mph 78 % 0.00 in
08:12 54.9 °F 48.6 °F 30.02 in East 1.0 mph 5.0 mph 79 % 0.00 in
08:17 55.6 °F 48.9 °F 30.02 in ENE 6.0 mph 6.0 mph 78 % 0.00 in
08:22 55.8 °F 48.9 °F 30.02 in East 3.0 mph 8.0 mph 78 % 0.00 in
08:27 56.3 °F 49.5 °F 30.03 in East 3.0 mph 8.0 mph 78 % 0.00 in
08:32 56.7 °F 49.5 °F 30.03 in East 3.0 mph 8.0 mph 77 % 0.00 in
08:37 57.2 °F 50.4 °F 30.03 in ESE 3.0 mph 6.0 mph 78 % 0.00 in
08:42 57.7 °F 50.9 °F 30.03 in ESE 1.0 mph 7.0 mph 78 % 0.00 in
08:47 58.5 °F 50.9 °F 30.04 in SE 3.0 mph 7.0 mph 76 % 0.00 in
08:52 59.0 °F 51.4 °F 30.04 in SE 4.0 mph 7.0 mph 76 % 0.00 in
08:57 59.4 °F 51.8 °F 30.03 in SE 1.0 mph 8.0 mph 76 % 0.00 in
09:02 59.9 °F 52.3 °F 30.03 in ESE 3.0 mph 8.0 mph 76 % 0.00 in
09:07 60.4 °F 52.5 °F 30.03 in SE 4.0 mph 8.0 mph 75 % 0.00 in
09:08 60.6 °F 52.7 °F 30.03 in SSE 1.0 mph 8.0 mph 75 % 0.00 in
09:13 61.3 °F 53.8 °F 30.04 in East 6.0 mph 9.0 mph 76 % 0.00 in
09:18 62.1 °F 53.6 °F 30.04 in ENE 2.0 mph 9.0 mph 74 % 0.00 in
09:23 62.8 °F 54.3 °F 30.04 in ESE 3.0 mph 9.0 mph 74 % 0.00 in
09:28 63.3 °F 54.5 °F 30.03 in ESE 6.0 mph 9.0 mph 73 % 0.00 in
09:33 64.0 °F 54.9 °F 30.04 in ESE 8.0 mph 12.0 mph 72 % 0.00 in
09:38 64.6 °F 55.4 °F 30.03 in SSE 9.0 mph 12.0 mph 72 % 0.00 in
09:43 64.9 °F 55.8 °F 30.03 in ESE 4.0 mph 12.0 mph 72 % 0.00 in
09:48 65.8 °F 56.1 °F 30.03 in East 5.0 mph 12.0 mph 71 % 0.00 in
09:53 66.0 °F 56.3 °F 30.03 in SE 3.0 mph 11.0 mph 71 % 0.00 in
09:58 66.0 °F 56.3 °F 30.03 in SSE 6.0 mph 11.0 mph 71 % 0.00 in
10:03 66.6 °F 56.5 °F 30.04 in ESE 5.0 mph 12.0 mph 70 % 0.00 in
10:08 67.6 °F 57.6 °F 30.04 in East 3.0 mph 13.0 mph 70 % 0.00 in
10:13 68.5 °F 57.9 °F 30.04 in ESE 7.0 mph 13.0 mph 69 % 0.00 in
10:18 69.1 °F 58.1 °F 30.04 in South 7.0 mph 13.0 mph 68 % 0.00 in
10:23 70.0 °F 58.5 °F 30.03 in SE 9.0 mph 12.0 mph 67 % 0.00 in
10:28 70.3 °F 58.5 °F 30.04 in East 7.0 mph 12.0 mph 66 % 0.00 in
10:33 70.3 °F 58.1 °F 30.03 in SSE 5.0 mph 15.0 mph 65 % 0.00 in
10:38 70.3 °F 58.1 °F 30.04 in SSE 8.0 mph 15.0 mph 65 % 0.00 in
10:43 70.2 °F 58.3 °F 30.04 in ESE 9.0 mph 15.0 mph 66 % 0.00 in
10:49 70.2 °F 58.3 °F 30.03 in SE 15.0 mph 15.0 mph 66 % 0.00 in
10:54 70.3 °F 58.5 °F 30.04 in ESE 14.0 mph 19.0 mph 66 % 0.00 in
10:59 70.9 °F 59.0 °F 30.03 in ESE 14.0 mph 19.0 mph 66 % 0.00 in
11:00 70.9 °F 58.5 °F 30.03 in South 10.0 mph 19.0 mph 65 % 0.00 in
11:05 71.4 °F 59.5 °F 30.03 in ESE 7.0 mph 19.0 mph 66 % 0.00 in
11:10 72.0 °F 59.9 °F 30.03 in SSE 9.0 mph 18.0 mph 66 % 0.00 in
11:15 72.0 °F 59.2 °F 30.03 in SSE 6.0 mph 16.0 mph 64 % 0.00 in
11:20 72.0 °F 59.2 °F 30.03 in ESE 11.0 mph 15.0 mph 64 % 0.00 in
11:25 72.0 °F 59.2 °F 30.02 in SE 11.0 mph 18.0 mph 64 % 0.00 in
11:30 71.6 °F 59.2 °F 30.02 in SE 11.0 mph 20.0 mph 65 % 0.00 in
11:35 71.2 °F 58.8 °F 30.02 in SE 13.0 mph 20.0 mph 65 % 0.00 in
11:40 71.4 °F 59.5 °F 30.01 in SE 9.0 mph 20.0 mph 66 % 0.00 in
11:45 71.8 °F 59.4 °F 30.01 in SE 9.0 mph 19.0 mph 65 % 0.00 in
11:50 72.3 °F 59.9 °F 30.01 in SSE 6.0 mph 16.0 mph 65 % 0.00 in
11:55 73.0 °F 60.1 °F 30.00 in ESE 13.0 mph 15.0 mph 64 % 0.00 in
12:00 72.7 °F 59.7 °F 30.01 in South 7.0 mph 17.0 mph 64 % 0.00 in
12:05 72.7 °F 59.7 °F 30.00 in SE 9.0 mph 17.0 mph 64 % 0.00 in
12:10 72.9 °F 59.0 °F 30.00 in ESE 14.0 mph 17.0 mph 62 % 0.00 in
12:15 72.9 °F 59.0 °F 30.00 in South 7.0 mph 20.0 mph 62 % 0.00 in
12:20 72.9 °F 59.0 °F 29.99 in SE 8.0 mph 20.0 mph 62 % 0.00 in
12:25 72.7 °F 58.8 °F 29.99 in SSE 4.0 mph 20.0 mph 62 % 0.00 in
12:30 73.0 °F 59.7 °F 29.99 in SE 6.0 mph 19.0 mph 63 % 0.00 in
12:35 73.4 °F 59.2 °F 29.98 in SE 14.0 mph 18.0 mph 61 % 0.00 in
12:40 73.6 °F 59.4 °F 29.98 in South 3.0 mph 21.0 mph 61 % 0.00 in
12:45 73.8 °F 59.0 °F 29.97 in SSW 9.0 mph 21.0 mph 60 % 0.00 in
12:50 73.9 °F 59.7 °F 29.97 in SE 9.0 mph 21.0 mph 61 % 0.00 in
12:56 73.6 °F 59.4 °F 29.97 in SE 12.0 mph 18.0 mph 61 % 0.00 in
13:01 73.6 °F 59.7 °F 29.97 in SSW 8.0 mph 21.0 mph 62 % 0.00 in
13:06 73.9 °F 59.2 °F 29.96 in South 8.0 mph 21.0 mph 60 % 0.00 in
13:11 74.3 °F 59.5 °F 29.96 in SE 12.0 mph 21.0 mph 60 % 0.00 in
13:16 74.1 °F 59.4 °F 29.96 in East 8.0 mph 19.0 mph 60 % 0.00 in
13:21 74.3 °F 60.4 °F 29.96 in SE 11.0 mph 16.0 mph 62 % 0.00 in
13:26 74.3 °F 59.0 °F 29.96 in SE 9.0 mph 16.0 mph 59 % 0.00 in
13:31 73.8 °F 59.5 °F 29.95 in SE 7.0 mph 20.0 mph 61 % 0.00 in
13:37 73.8 °F 59.5 °F 29.95 in South 8.0 mph 20.0 mph 61 % 0.00 in
13:42 73.8 °F 59.0 °F 29.95 in SSE 9.0 mph 20.0 mph 60 % 0.00 in
13:47 73.4 °F 59.2 °F 29.95 in SSE 5.0 mph 17.0 mph 61 % 0.00 in
13:52 73.2 °F 59.9 °F 29.95 in SE 5.0 mph 17.0 mph 63 % 0.00 in
13:57 73.0 °F 59.2 °F 29.95 in SSE 8.0 mph 16.0 mph 62 % 0.00 in
14:02 73.0 °F 58.8 °F 29.94 in ESE 6.0 mph 14.0 mph 61 % 0.00 in
14:06 72.9 °F 59.0 °F 29.94 in SE 6.0 mph 14.0 mph 62 % 0.00 in
14:12 72.9 °F 59.0 °F 29.94 in SSE 11.0 mph 15.0 mph 62 % 0.00 in
14:17 72.7 °F 58.8 °F 29.94 in South 11.0 mph 17.0 mph 62 % 0.00 in
14:22 72.7 °F 59.4 °F 29.94 in ESE 6.0 mph 17.0 mph 63 % 0.00 in
14:27 72.3 °F 59.0 °F 29.94 in SSE 13.0 mph 17.0 mph 63 % 0.00 in
14:32 72.3 °F 59.5 °F 29.94 in SE 8.0 mph 20.0 mph 64 % 0.00 in
14:37 72.3 °F 59.5 °F 29.94 in SSE 12.0 mph 20.0 mph 64 % 0.00 in
14:42 72.3 °F 59.9 °F 29.94 in SE 4.0 mph 20.0 mph 65 % 0.00 in
14:47 72.1 °F 59.4 °F 29.93 in SE 7.0 mph 18.0 mph 64 % 0.00 in
14:52 72.1 °F 59.7 °F 29.93 in SSE 7.0 mph 18.0 mph 65 % 0.00 in
14:57 72.3 °F 60.3 °F 29.93 in SE 4.0 mph 18.0 mph 66 % 0.00 in
15:02 72.1 °F 60.6 °F 29.93 in SE 9.0 mph 15.0 mph 67 % 0.00 in
15:07 72.0 °F 60.8 °F 29.93 in SE 6.0 mph 13.0 mph 68 % 0.00 in
15:12 72.0 °F 60.8 °F 29.93 in East 7.0 mph 13.0 mph 68 % 0.00 in
15:17 72.1 °F 61.0 °F 29.93 in South 6.0 mph 13.0 mph 68 % 0.00 in
15:22 72.3 °F 61.2 °F 29.93 in ESE 7.0 mph 12.0 mph 68 % 0.00 in
15:27 72.1 °F 61.0 °F 29.93 in SE 11.0 mph 12.0 mph 68 % 0.00 in
15:32 72.0 °F 61.2 °F 29.93 in SSE 7.0 mph 14.0 mph 69 % 0.00 in
15:37 72.0 °F 61.2 °F 29.93 in ESE 9.0 mph 14.0 mph 69 % 0.00 in
15:42 72.1 °F 61.3 °F 29.92 in SE 6.0 mph 14.0 mph 69 % 0.00 in
15:47 72.1 °F 61.3 °F 29.92 in East 7.0 mph 13.0 mph 69 % 0.00 in
15:52 72.1 °F 61.0 °F 29.92 in ESE 6.0 mph 13.0 mph 68 % 0.00 in
15:57 72.1 °F 61.3 °F 29.92 in SSW 6.0 mph 12.0 mph 69 % 0.00 in
16:02 72.0 °F 61.7 °F 29.92 in SE 5.0 mph 14.0 mph 70 % 0.00 in
16:07 71.8 °F 61.9 °F 29.92 in SE 7.0 mph 14.0 mph 71 % 0.00 in
16:12 71.6 °F 61.7 °F 29.92 in SE 9.0 mph 14.0 mph 71 % 0.00 in
16:17 71.4 °F 61.9 °F 29.92 in SSE 6.0 mph 14.0 mph 72 % 0.00 in
16:22 71.4 °F 61.9 °F 29.92 in SE 5.0 mph 14.0 mph 72 % 0.00 in
16:27 71.1 °F 61.5 °F 29.92 in SE 6.0 mph 14.0 mph 72 % 0.00 in
16:32 71.1 °F 61.9 °F 29.92 in ESE 9.0 mph 14.0 mph 73 % 0.00 in
16:37 71.1 °F 61.9 °F 29.92 in ESE 9.0 mph 14.0 mph 73 % 0.00 in
16:42 70.9 °F 61.9 °F 29.91 in SE 8.0 mph 14.0 mph 73 % 0.00 in
16:47 70.9 °F 62.2 °F 29.92 in ESE 3.0 mph 14.0 mph 74 % 0.00 in
16:52 70.9 °F 62.2 °F 29.91 in SE 5.0 mph 14.0 mph 74 % 0.00 in
16:57 70.9 °F 62.2 °F 29.91 in ESE 4.0 mph 11.0 mph 74 % 0.00 in
17:02 70.9 °F 62.2 °F 29.92 in SE 4.0 mph 14.0 mph 74 % 0.00 in
17:07 70.9 °F 62.2 °F 29.91 in SSE 6.0 mph 14.0 mph 74 % 0.00 in
17:12 70.7 °F 62.1 °F 29.92 in ESE 10.0 mph 14.0 mph 74 % 0.00 in
17:17 70.5 °F 62.2 °F 29.91 in SE 4.0 mph 13.0 mph 75 % 0.00 in
17:22 70.5 °F 62.2 °F 29.91 in SE 12.0 mph 13.0 mph 75 % 0.00 in
17:27 70.3 °F 62.1 °F 29.91 in SSE 6.0 mph 12.0 mph 75 % 0.00 in
17:32 70.3 °F 62.4 °F 29.91 in SE 5.0 mph 12.0 mph 76 % 0.00 in
17:37 70.0 °F 62.4 °F 29.91 in SE 1.0 mph 14.0 mph 77 % 0.00 in
17:42 69.8 °F 62.2 °F 29.92 in SSE 7.0 mph 14.0 mph 77 % 0.00 in
17:47 69.6 °F 62.1 °F 29.91 in SE 3.0 mph 14.0 mph 77 % 0.00 in
17:52 69.6 °F 62.4 °F 29.92 in ESE 2.0 mph 12.0 mph 78 % 0.00 in
17:57 69.6 °F 62.4 °F 29.92 in ESE 5.0 mph 12.0 mph 78 % 0.00 in
18:02 69.6 °F 62.4 °F 29.92 in SSE 6.0 mph 13.0 mph 78 % 0.00 in
18:07 69.4 °F 62.6 °F 29.91 in ESE 3.0 mph 13.0 mph 79 % 0.00 in
18:12 69.4 °F 62.6 °F 29.92 in SE 11.0 mph 13.0 mph 79 % 0.00 in
18:17 69.3 °F 62.4 °F 29.92 in ESE 11.0 mph 15.0 mph 79 % 0.00 in
18:22 69.3 °F 62.8 °F 29.92 in ESE 8.0 mph 15.0 mph 80 % 0.00 in
18:27 69.3 °F 62.8 °F 29.91 in SE 12.0 mph 15.0 mph 80 % 0.00 in
18:32 69.1 °F 62.6 °F 29.91 in SSE 3.0 mph 15.0 mph 80 % 0.00 in
18:37 69.1 °F 63.0 °F 29.92 in SE 4.0 mph 15.0 mph 81 % 0.00 in
18:42 69.1 °F 63.0 °F 29.92 in ESE 5.0 mph 15.0 mph 81 % 0.00 in
18:47 68.9 °F 62.8 °F 29.92 in SE 6.0 mph 13.0 mph 81 % 0.00 in
18:52 68.7 °F 63.0 °F 29.92 in ESE 4.0 mph 13.0 mph 82 % 0.00 in
18:57 68.7 °F 63.0 °F 29.92 in ENE 9.0 mph 12.0 mph 82 % 0.00 in
19:02 68.5 °F 62.8 °F 29.92 in SE 4.0 mph 12.0 mph 82 % 0.00 in
19:07 68.5 °F 63.1 °F 29.92 in SE 5.0 mph 12.0 mph 83 % 0.00 in
19:12 68.5 °F 63.1 °F 29.92 in East 7.0 mph 12.0 mph 83 % 0.00 in
19:17 68.4 °F 63.0 °F 29.92 in SE 4.0 mph 10.0 mph 83 % 0.00 in
19:22 68.4 °F 63.0 °F 29.92 in SSE 4.0 mph 11.0 mph 83 % 0.00 in
19:27 68.4 °F 63.3 °F 29.92 in SE 6.0 mph 11.0 mph 84 % 0.00 in
19:32 68.4 °F 63.3 °F 29.92 in ESE 7.0 mph 11.0 mph 84 % 0.00 in
19:37 68.4 °F 63.3 °F 29.92 in SE 8.0 mph 11.0 mph 84 % 0.00 in
19:43 68.2 °F 63.1 °F 29.92 in South 1.0 mph 11.0 mph 84 % 0.00 in
19:48 68.2 °F 63.1 °F 29.93 in Calm   10.0 mph 84 % 0.00 in
19:53 68.2 °F 63.5 °F 29.93 in SE 3.0 mph 10.0 mph 85 % 0.00 in
19:58 68.2 °F 63.5 °F 29.93 in ESE 2.0 mph 10.0 mph 85 % 0.00 in
20:03 68.0 °F 63.3 °F 29.93 in SE 1.0 mph 9.0 mph 85 % 0.00 in
20:08 67.8 °F 63.5 °F 29.93 in East 3.0 mph 9.0 mph 86 % 0.00 in
20:13 67.8 °F 63.5 °F 29.94 in ESE 4.0 mph 9.0 mph 86 % 0.00 in
20:18 67.8 °F 63.9 °F 29.94 in SE 4.0 mph 9.0 mph 87 % 0.00 in
20:23 67.6 °F 63.7 °F 29.94 in ESE 3.0 mph 9.0 mph 87 % 0.00 in
20:28 67.6 °F 63.7 °F 29.94 in Calm   10.0 mph 87 % 0.00 in
20:33 67.6 °F 63.7 °F 29.94 in East 1.0 mph 10.0 mph 87 % 0.00 in
20:34 67.6 °F 63.7 °F 29.94 in ESE 3.0 mph 10.0 mph 87 % 0.00 in
20:39 67.6 °F 63.7 °F 29.94 in East 5.0 mph 10.0 mph 87 % 0.00 in
20:44 67.6 °F 64.0 °F 29.94 in SE 4.0 mph 9.0 mph 88 % 0.00 in
20:49 67.5 °F 63.9 °F 29.94 in East 8.0 mph 9.0 mph 88 % 0.00 in
20:54 67.5 °F 63.9 °F 29.94 in ESE 6.0 mph 10.0 mph 88 % 0.00 in
20:59 67.5 °F 63.9 °F 29.94 in ESE 4.0 mph 10.0 mph 88 % 0.00 in
21:04 67.5 °F 64.0 °F 29.94 in SE 8.0 mph 10.0 mph 89 % 0.00 in
21:09 67.3 °F 63.9 °F 29.94 in SSE 3.0 mph 10.0 mph 89 % 0.00 in
21:14 67.3 °F 63.9 °F 29.94 in South 5.0 mph 9.0 mph 89 % 0.00 in
21:19 67.3 °F 64.2 °F 29.93 in SE 5.0 mph 9.0 mph 90 % 0.00 in
21:24 67.1 °F 64.0 °F 29.93 in ESE 4.0 mph 9.0 mph 90 % 0.00 in
21:29 66.9 °F 63.9 °F 29.93 in East 2.0 mph 9.0 mph 90 % 0.00 in
21:34 66.9 °F 64.2 °F 29.94 in ESE 1.0 mph 8.0 mph 91 % 0.00 in
21:39 66.9 °F 64.2 °F 29.94 in SW 1.0 mph 8.0 mph 91 % 0.00 in
21:44 66.7 °F 64.0 °F 29.94 in SE 2.0 mph 8.0 mph 91 % 0.00 in
21:49 66.7 °F 64.0 °F 29.94 in ESE 2.0 mph 7.0 mph 91 % 0.00 in
21:54 66.7 °F 64.0 °F 29.95 in ESE 2.0 mph 6.0 mph 91 % 0.00 in
21:59 66.7 °F 64.4 °F 29.94 in SE 5.0 mph 6.0 mph 92 % 0.00 in
22:04 66.7 °F 64.4 °F 29.95 in SE 4.0 mph 6.0 mph 92 % 0.00 in
22:09 66.9 °F 64.6 °F 29.95 in East 2.0 mph 7.0 mph 92 % 0.00 in
22:14 66.9 °F 64.6 °F 29.95 in Calm   7.0 mph 92 % 0.00 in
22:19 66.9 °F 64.6 °F 29.95 in SE 1.0 mph 7.0 mph 92 % 0.00 in
22:25 67.1 °F 64.8 °F 29.95 in SSE 2.0 mph 7.0 mph 92 % 0.00 in
22:30 67.1 °F 64.8 °F 29.95 in SE 1.0 mph 7.0 mph 92 % 0.00 in
22:35 67.1 °F 64.8 °F 29.94 in Calm   6.0 mph 92 % 0.00 in
22:40 66.9 °F 64.6 °F 29.95 in ENE 3.0 mph 6.0 mph 92 % 0.00 in
22:45 66.9 °F 64.6 °F 29.94 in Calm   6.0 mph 92 % 0.00 in
22:55 67.1 °F 64.9 °F 29.94 in SE 3.0 mph 6.0 mph 93 % 0.00 in
23:00 67.1 °F 64.9 °F 29.93 in ESE 6.0 mph 6.0 mph 93 % 0.00 in
23:05 67.1 °F 64.9 °F 29.93 in ESE 3.0 mph 7.0 mph 93 % 0.00 in
23:10 67.1 °F 64.9 °F 29.93 in SE 4.0 mph 7.0 mph 93 % 0.00 in
23:15 67.1 °F 64.9 °F 29.93 in South 1.0 mph 7.0 mph 93 % 0.00 in
23:20 67.1 °F 64.9 °F 29.92 in East 5.0 mph 6.0 mph 93 % 0.00 in
23:25 67.1 °F 64.9 °F 29.92 in SSE 3.0 mph 6.0 mph 93 % 0.00 in
23:30 67.3 °F 65.1 °F 29.91 in SE 3.0 mph 6.0 mph 93 % 0.00 in
23:35 67.3 °F 65.1 °F 29.91 in SSW 2.0 mph 8.0 mph 93 % 0.00 in
23:40 67.5 °F 65.7 °F 29.92 in ESE 3.0 mph 8.0 mph 94 % 0.00 in
23:45 67.5 °F 65.7 °F 29.92 in SSE 3.0 mph 8.0 mph 94 % 0.00 in
23:47 67.6 °F 65.8 °F 29.92 in SE 3.0 mph 8.0 mph 94 % 0.00 in
23:52 67.8 °F 66.0 °F 29.92 in SE 6.0 mph 8.0 mph 94 % 0.00 in
23:57 68.0 °F 65.8 °F 29.92 in ESE 5.0 mph 9.0 mph 93 % 0.00 in
Spring, Texas: Villages of Bridgestone
Compliments of Weather Underground - 3.25 mb

Script developed by  Jim McMurry - jmcmurry@mwt.net Adapted for the template by  Wim van der Kuil - Leuven-Template.eu

You find our weather info also at:

UK Metoffice

WeatherCloud

Weather Underground

Mid-South Weather Network

AWEKAS

Citizen Weather Observer Program (CWOP)

HAMweather, WeatherForYou, PWS Weather

Equipment we use:

Weather-station
Davis Vantage Vue

Weather-program
Meteohub

Weather-server
Debian 7.9 x86 (Guest)

Provider
DreamHost

Davis Vantage Vue

Meteohub

Debian 7.9 x86 (Guest)

DreamHost